createdAt,value
2023-02-14T00:00:37.626Z,0.00
2023-02-14T00:01:37.605Z,0.00
2023-02-14T00:02:37.639Z,0.00
2023-02-14T00:03:37.568Z,0.00
2023-02-14T00:04:37.621Z,0.00
2023-02-14T00:05:37.530Z,0.00
2023-02-14T00:06:37.515Z,0.00
2023-02-14T00:07:37.487Z,0.00
2023-02-14T00:08:37.468Z,0.00
2023-02-14T00:09:37.445Z,0.00
2023-02-14T00:10:37.429Z,0.00
2023-02-14T00:11:37.410Z,0.00
2023-02-14T00:12:37.401Z,0.00
2023-02-14T00:13:37.369Z,0.00
2023-02-14T00:14:37.356Z,0.00
2023-02-14T00:15:37.335Z,0.00
2023-02-14T00:16:37.310Z,0.00
2023-02-14T00:17:37.287Z,0.00
2023-02-14T00:18:37.272Z,0.00
2023-02-14T00:19:37.251Z,0.00
2023-02-14T00:20:37.232Z,0.00
2023-02-14T00:21:37.207Z,0.00
2023-02-14T00:22:37.192Z,0.00
2023-02-14T00:23:37.174Z,0.00
2023-02-14T00:24:37.152Z,0.00
2023-02-14T00:25:37.130Z,0.00
2023-02-14T00:26:37.110Z,0.00
2023-02-14T00:27:37.104Z,0.00
2023-02-14T00:28:37.071Z,0.00
2023-02-14T00:29:37.049Z,0.00
2023-02-14T00:30:37.142Z,0.00
2023-02-14T00:31:37.221Z,0.00
2023-02-14T00:32:36.987Z,0.00
2023-02-14T00:33:36.979Z,0.00
2023-02-14T00:34:36.951Z,0.00
2023-02-14T00:35:36.931Z,0.00
2023-02-14T00:36:36.912Z,0.00
2023-02-14T00:37:36.896Z,0.00
2023-02-14T00:38:36.869Z,0.00
2023-02-14T00:39:36.870Z,0.00
2023-02-14T00:40:36.828Z,0.00
2023-02-14T00:41:36.810Z,0.00
2023-02-14T00:42:36.800Z,0.00
2023-02-14T00:43:36.767Z,0.00
2023-02-14T00:44:36.753Z,0.00
2023-02-14T00:45:36.762Z,0.00
2023-02-14T00:46:36.708Z,0.00
2023-02-14T00:47:36.702Z,0.00
2023-02-14T00:48:36.669Z,0.00
2023-02-14T00:49:36.661Z,0.00
2023-02-14T00:50:36.630Z,0.00
2023-02-14T00:51:36.611Z,0.00
2023-02-14T00:52:36.590Z,0.00
2023-02-14T00:53:36.572Z,0.00
2023-02-14T00:54:36.551Z,0.00
2023-02-14T00:55:36.535Z,0.00
2023-02-14T00:56:36.515Z,0.00
2023-02-14T00:57:36.491Z,0.00
2023-02-14T00:58:36.471Z,0.00
2023-02-14T00:59:36.457Z,0.00
2023-02-14T01:00:36.496Z,0.00
2023-02-14T01:01:36.412Z,0.00
2023-02-14T01:02:36.451Z,0.00
2023-02-14T01:03:36.393Z,0.00
2023-02-14T01:04:36.350Z,0.00
2023-02-14T01:05:36.345Z,0.00
2023-02-14T01:06:36.330Z,0.00
2023-02-14T01:07:36.307Z,0.00
2023-02-14T01:08:36.278Z,0.00
2023-02-14T01:09:36.250Z,0.00
2023-02-14T01:10:36.228Z,0.00
2023-02-14T01:11:36.208Z,0.00
2023-02-14T01:12:36.188Z,0.00
2023-02-14T01:13:36.172Z,0.00
2023-02-14T01:14:36.155Z,0.00
2023-02-14T01:15:36.137Z,0.00
2023-02-14T01:16:36.155Z,0.00
2023-02-14T01:17:36.106Z,0.00
2023-02-14T01:18:36.540Z,0.00
2023-02-14T01:19:36.062Z,0.00
2023-02-14T01:20:36.028Z,0.00
2023-02-14T01:21:36.061Z,0.00
2023-02-14T01:22:36.008Z,0.00
2023-02-14T01:23:35.996Z,0.00
2023-02-14T01:24:35.951Z,0.00
2023-02-14T01:25:35.943Z,0.00
2023-02-14T01:26:35.908Z,0.00
2023-02-14T01:27:35.893Z,0.00
2023-02-14T01:28:35.868Z,0.00
2023-02-14T01:29:35.858Z,0.00
2023-02-14T01:30:35.936Z,0.00
2023-02-14T01:31:36.002Z,0.00
2023-02-14T01:32:35.795Z,0.00
2023-02-14T01:33:35.802Z,0.00
2023-02-14T01:34:35.751Z,0.00
2023-02-14T01:35:35.741Z,0.00
2023-02-14T01:36:35.710Z,0.00
2023-02-14T01:37:35.697Z,0.00
2023-02-14T01:38:35.673Z,0.00
2023-02-14T01:39:35.677Z,0.00
2023-02-14T01:40:35.636Z,0.00
2023-02-14T01:41:35.616Z,0.00
2023-02-14T01:42:35.590Z,0.00
2023-02-14T01:43:35.576Z,0.00
2023-02-14T01:44:35.551Z,0.00
2023-02-14T01:45:35.544Z,0.00
2023-02-14T01:46:35.515Z,0.00
2023-02-14T01:47:35.521Z,0.00
2023-02-14T01:48:35.478Z,0.00
2023-02-14T01:49:35.471Z,0.00
2023-02-14T01:50:35.440Z,0.00
2023-02-14T01:51:35.419Z,0.00
2023-02-14T01:52:35.407Z,0.00
2023-02-14T01:53:35.377Z,0.00
2023-02-14T01:54:35.387Z,0.00
2023-02-14T01:55:35.333Z,0.00
2023-02-14T01:56:35.351Z,0.00
2023-02-14T01:57:35.297Z,0.00
2023-02-14T01:58:35.280Z,0.00
2023-02-14T01:59:35.258Z,0.00
2023-02-14T02:00:35.241Z,0.00
2023-02-14T02:01:35.257Z,0.00
2023-02-14T02:02:35.251Z,0.00
2023-02-14T02:03:35.185Z,0.00
2023-02-14T02:04:35.152Z,0.00
2023-02-14T02:05:35.138Z,0.00
2023-02-14T02:06:35.120Z,0.00
2023-02-14T02:07:35.103Z,0.00
2023-02-14T02:08:35.075Z,0.00
2023-02-14T02:09:35.059Z,0.00
2023-02-14T02:10:35.035Z,0.00
2023-02-14T02:11:35.017Z,0.00
2023-02-14T02:12:34.994Z,0.00
2023-02-14T02:13:34.982Z,0.00
2023-02-14T02:14:34.951Z,0.00
2023-02-14T02:15:34.934Z,0.00
2023-02-14T02:16:34.962Z,0.00
2023-02-14T02:17:34.895Z,0.00
2023-02-14T02:18:34.873Z,0.00
2023-02-14T02:19:34.860Z,0.00
2023-02-14T02:20:34.854Z,0.00
2023-02-14T02:21:34.812Z,0.00
2023-02-14T02:22:34.813Z,0.00
2023-02-14T02:23:34.801Z,0.00
2023-02-14T02:24:34.808Z,0.00
2023-02-14T02:25:34.731Z,0.00
2023-02-14T02:26:34.716Z,0.00
2023-02-14T02:27:34.700Z,0.00
2023-02-14T02:28:34.701Z,0.00
2023-02-14T02:29:34.653Z,0.00
2023-02-14T02:30:34.837Z,0.00
2023-02-14T02:31:34.761Z,0.00
2023-02-14T02:32:34.595Z,0.00
2023-02-14T02:33:34.574Z,0.00
2023-02-14T02:34:34.555Z,0.00
2023-02-14T02:35:34.572Z,0.00
2023-02-14T02:36:34.513Z,0.00
2023-02-14T02:37:34.489Z,0.00
2023-02-14T02:38:34.489Z,0.00
2023-02-14T02:39:34.500Z,0.00
2023-02-14T02:40:34.432Z,0.00
2023-02-14T02:41:34.430Z,0.00
2023-02-14T02:42:34.396Z,0.00
2023-02-14T02:43:34.382Z,0.00
2023-02-14T02:44:34.357Z,0.00
2023-02-14T02:45:34.335Z,0.00
2023-02-14T02:46:34.314Z,0.00
2023-02-14T02:47:34.303Z,0.00
2023-02-14T02:48:34.271Z,0.00
2023-02-14T02:49:34.257Z,0.00
2023-02-14T02:50:34.235Z,0.00
2023-02-14T02:51:34.213Z,0.00
2023-02-14T02:52:34.196Z,0.00
2023-02-14T02:53:34.183Z,0.00
2023-02-14T02:54:34.152Z,0.00
2023-02-14T02:55:34.170Z,0.00
2023-02-14T02:56:34.117Z,0.00
2023-02-14T02:57:34.091Z,0.00
2023-02-14T02:58:34.072Z,0.00
2023-02-14T02:59:34.055Z,0.00
2023-02-14T03:00:34.033Z,0.00
2023-02-14T03:01:34.111Z,0.00
2023-02-14T03:02:34.003Z,0.00
2023-02-14T03:03:33.976Z,0.00
2023-02-14T03:04:33.970Z,0.00
2023-02-14T03:05:33.932Z,0.00
2023-02-14T03:06:33.978Z,0.00
2023-02-14T03:07:33.892Z,0.00
2023-02-14T03:08:33.896Z,0.00
2023-02-14T03:09:33.856Z,0.00
2023-02-14T03:10:33.832Z,0.00
2023-02-14T03:11:33.825Z,0.00
2023-02-14T03:12:33.790Z,0.00
2023-02-14T03:13:33.775Z,0.00
2023-02-14T03:14:33.759Z,0.00
2023-02-14T03:15:33.780Z,0.00
2023-02-14T03:16:33.714Z,0.00
2023-02-14T03:17:33.697Z,0.00
2023-02-14T03:18:33.674Z,0.00
2023-02-14T03:19:33.657Z,0.00
2023-02-14T03:20:33.675Z,0.00
2023-02-14T03:21:33.614Z,0.00
2023-02-14T03:22:33.601Z,0.00
2023-02-14T03:23:33.576Z,0.00
2023-02-14T03:24:33.555Z,0.00
2023-02-14T03:25:33.539Z,0.00
2023-02-14T03:26:33.513Z,0.00
2023-02-14T03:27:33.510Z,0.00
2023-02-14T03:28:33.474Z,0.00
2023-02-14T03:29:33.461Z,0.00
2023-02-14T03:30:33.480Z,0.00
2023-02-14T03:31:33.543Z,0.00
2023-02-14T03:32:33.392Z,0.00
2023-02-14T03:33:33.376Z,0.00
2023-02-14T03:34:33.357Z,0.00
2023-02-14T03:35:33.331Z,0.00
2023-02-14T03:36:33.316Z,0.00
2023-02-14T03:37:33.301Z,0.00
2023-02-14T03:38:33.269Z,0.00
2023-02-14T03:39:33.262Z,0.00
2023-02-14T03:40:33.520Z,0.00
2023-02-14T03:41:33.207Z,0.00
2023-02-14T03:42:33.218Z,0.00
2023-02-14T03:43:33.180Z,0.00
2023-02-14T03:44:33.162Z,0.00
2023-02-14T03:45:33.234Z,0.00
2023-02-14T03:46:33.162Z,0.00
2023-02-14T03:47:33.090Z,0.00
2023-02-14T03:48:33.071Z,0.00
2023-02-14T03:49:33.052Z,0.00
2023-02-14T03:50:33.032Z,0.00
2023-02-14T03:51:33.011Z,0.00
2023-02-14T03:52:32.997Z,0.00
2023-02-14T03:53:32.969Z,0.00
2023-02-14T03:54:32.947Z,0.00
2023-02-14T03:55:32.926Z,0.00
2023-02-14T03:56:32.905Z,0.00
2023-02-14T03:57:32.901Z,0.00
2023-02-14T03:58:32.869Z,0.00
2023-02-14T03:59:32.854Z,0.00
2023-02-14T04:00:32.846Z,0.00
2023-02-14T04:01:32.853Z,0.00
2023-02-14T04:02:32.781Z,0.00
2023-02-14T04:03:32.845Z,0.00
2023-02-14T04:04:32.749Z,0.00
2023-02-14T04:05:32.727Z,0.00
2023-02-14T04:06:32.728Z,0.00
2023-02-14T04:07:32.683Z,0.00
2023-02-14T04:08:32.728Z,0.00
2023-02-14T04:09:32.645Z,0.00
2023-02-14T04:10:32.621Z,0.00
2023-02-14T04:11:32.602Z,0.00
2023-02-14T04:12:38.062Z,0.00
2023-02-14T04:13:32.572Z,0.00
2023-02-14T04:14:32.568Z,0.00
2023-02-14T04:15:32.544Z,0.00
2023-02-14T04:16:32.519Z,0.00
2023-02-14T04:17:32.485Z,0.00
2023-02-14T04:18:32.459Z,0.00
2023-02-14T04:19:32.440Z,0.00
2023-02-14T04:20:32.423Z,0.00
2023-02-14T04:21:32.397Z,0.00
2023-02-14T04:22:32.378Z,0.00
2023-02-14T04:23:32.361Z,0.00
2023-02-14T04:27:39.815Z,0.00
2023-02-14T04:28:39.657Z,0.00
2023-02-14T04:29:39.678Z,0.00
2023-02-14T04:30:39.699Z,0.00
2023-02-14T04:31:39.929Z,0.00
2023-02-14T04:32:39.514Z,0.00
2023-02-14T04:33:39.510Z,0.00
2023-02-14T04:34:39.479Z,0.00
2023-02-14T04:35:39.459Z,0.00
2023-02-14T04:36:39.537Z,0.00
2023-02-14T04:37:39.412Z,0.00
2023-02-14T04:38:39.396Z,0.00
2023-02-14T04:39:39.463Z,0.00
2023-02-14T04:40:39.360Z,0.00
2023-02-14T04:41:39.336Z,0.00
2023-02-14T04:42:39.321Z,0.00
2023-02-14T04:43:39.309Z,0.00
2023-02-14T04:44:39.271Z,0.00
2023-02-14T04:45:39.265Z,0.00
2023-02-14T04:46:39.321Z,0.00
2023-02-14T04:47:39.226Z,0.00
2023-02-14T04:48:39.190Z,0.00
2023-02-14T06:06:20.365Z,0.00
2023-02-14T06:07:20.131Z,0.00
2023-02-14T06:09:25.959Z,0.00
2023-02-14T06:10:25.097Z,0.00
2023-02-14T06:12:33.182Z,0.00
2023-02-14T06:13:33.009Z,0.00
2023-02-14T06:15:39.051Z,0.00
2023-02-14T06:16:39.432Z,0.00
2023-02-14T06:17:39.121Z,4.00
2023-02-14T06:18:38.946Z,0.00
2023-02-14T06:19:38.988Z,4.00
2023-02-14T06:20:39.330Z,4.00
2023-02-14T06:21:38.885Z,4.00
2023-02-14T06:22:38.854Z,4.00
2023-02-14T06:23:38.837Z,8.00
2023-02-14T06:24:38.827Z,8.00
2023-02-14T06:25:38.796Z,12.00
2023-02-14T06:26:38.778Z,12.00
2023-02-14T06:27:38.757Z,12.00
2023-02-14T06:28:38.738Z,16.00
2023-02-14T06:29:38.715Z,16.00
2023-02-14T06:30:38.921Z,16.00
2023-02-14T06:31:38.841Z,20.00
2023-02-14T06:32:38.660Z,24.00
2023-02-14T06:33:38.665Z,20.00
2023-02-14T06:34:38.621Z,24.00
2023-02-14T06:35:38.598Z,28.00
2023-02-14T06:36:38.580Z,28.00
2023-02-14T06:37:38.580Z,32.00
2023-02-14T06:38:38.583Z,32.00
2023-02-14T06:39:38.522Z,36.00
2023-02-14T06:40:38.504Z,36.00
2023-02-14T06:41:38.491Z,44.00
2023-02-14T06:42:38.470Z,44.00
2023-02-14T06:43:38.444Z,48.00
2023-02-14T06:44:38.426Z,52.00
2023-02-14T06:45:38.406Z,60.00
2023-02-14T06:46:38.388Z,60.00
2023-02-14T06:47:38.370Z,60.00
2023-02-14T06:48:38.353Z,72.00
2023-02-14T06:49:38.334Z,72.00
2023-02-14T06:50:38.325Z,76.00
2023-02-14T06:51:38.294Z,84.00
2023-02-14T06:52:38.274Z,88.00
2023-02-14T06:53:38.267Z,96.00
2023-02-14T06:54:38.233Z,100.00
2023-02-14T06:55:38.225Z,108.00
2023-02-14T06:56:38.196Z,116.00
2023-02-14T06:57:38.174Z,120.00
2023-02-14T06:58:38.153Z,128.00
2023-02-14T06:59:38.132Z,136.00
2023-02-14T07:00:38.115Z,148.00
2023-02-14T07:01:38.138Z,160.00
2023-02-14T07:02:38.142Z,164.00
2023-02-14T07:03:38.065Z,176.00
2023-02-14T07:04:38.037Z,192.00
2023-02-14T07:05:38.027Z,204.00
2023-02-14T07:06:38.383Z,212.00
2023-02-14T07:07:37.983Z,240.00
2023-02-14T07:08:37.957Z,268.00
2023-02-14T07:09:37.974Z,268.00
2023-02-14T07:10:37.927Z,268.00
2023-02-14T07:11:37.897Z,268.00
2023-02-14T07:12:37.880Z,268.00
2023-02-14T07:13:37.884Z,304.00
2023-02-14T07:14:37.843Z,320.00
2023-02-14T07:15:37.838Z,340.00
2023-02-14T07:16:37.807Z,372.00
2023-02-14T07:17:37.787Z,380.00
2023-02-14T07:18:37.782Z,384.00
2023-02-14T07:19:37.768Z,392.00
2023-02-14T07:20:37.738Z,396.00
2023-02-14T07:21:37.710Z,384.00
2023-02-14T07:22:37.704Z,404.00
2023-02-14T07:23:37.674Z,376.00
2023-02-14T07:24:37.652Z,388.00
2023-02-14T07:25:37.640Z,376.00
2023-02-14T07:26:37.616Z,360.00
2023-02-14T07:27:37.601Z,372.00
2023-02-14T07:28:37.574Z,396.00
2023-02-14T07:29:37.577Z,400.00
2023-02-14T07:30:37.534Z,400.00
2023-02-14T07:31:37.613Z,388.00
2023-02-14T07:32:37.500Z,388.00
2023-02-14T07:33:37.481Z,348.00
2023-02-14T07:34:37.484Z,360.00
2023-02-14T07:35:37.441Z,352.00
2023-02-14T07:36:37.426Z,328.00
2023-02-14T07:37:37.406Z,336.00
2023-02-14T07:38:37.385Z,340.00
2023-02-14T07:39:37.367Z,388.00
2023-02-14T07:40:37.346Z,400.00
2023-02-14T07:41:37.332Z,420.00
2023-02-14T07:42:37.306Z,420.00
2023-02-14T07:43:37.287Z,444.00
2023-02-14T07:44:37.271Z,468.00
2023-02-14T07:45:37.252Z,496.00
2023-02-14T07:46:37.339Z,520.00
2023-02-14T07:47:37.213Z,496.00
2023-02-14T07:48:37.196Z,488.00
2023-02-14T07:49:37.180Z,540.00
2023-02-14T07:50:37.156Z,568.00
2023-02-14T07:51:37.150Z,588.00
2023-02-14T07:52:37.119Z,572.00
2023-02-14T07:53:37.096Z,564.00
2023-02-14T07:54:37.080Z,584.00
2023-02-14T07:55:37.056Z,596.00
2023-02-14T07:56:37.039Z,584.00
2023-02-14T07:57:37.032Z,556.00
2023-02-14T07:58:37.005Z,572.00
2023-02-14T07:59:36.985Z,580.00
2023-02-14T08:00:36.964Z,584.00
2023-02-14T08:01:36.978Z,624.00
2023-02-14T08:02:36.929Z,636.00
2023-02-14T08:03:36.907Z,660.00
2023-02-14T08:04:36.916Z,672.00
2023-02-14T08:05:36.868Z,664.00
2023-02-14T08:06:36.851Z,608.00
2023-02-14T08:07:36.828Z,624.00
2023-02-14T08:08:36.815Z,684.00
2023-02-14T08:09:36.814Z,668.00
2023-02-14T08:10:36.772Z,744.00
2023-02-14T08:11:36.764Z,792.00
2023-02-14T08:12:36.731Z,772.00
2023-02-14T08:13:36.721Z,844.00
2023-02-14T08:14:36.692Z,772.00
2023-02-14T08:15:36.675Z,868.00
2023-02-14T08:16:36.655Z,984.00
2023-02-14T08:17:36.746Z,1052.00
2023-02-14T08:18:36.636Z,1132.00
2023-02-14T08:19:36.596Z,1184.00
2023-02-14T08:20:36.576Z,1104.00
2023-02-14T08:21:36.561Z,1192.00
2023-02-14T08:22:36.540Z,1184.00
2023-02-14T08:23:36.520Z,1244.00
2023-02-14T08:24:36.501Z,1156.00
2023-02-14T08:25:36.483Z,984.00
2023-02-14T08:26:36.466Z,1036.00
2023-02-14T08:27:36.452Z,1104.00
2023-02-14T08:28:36.444Z,1276.00
2023-02-14T08:29:36.430Z,1408.00
2023-02-14T08:30:36.436Z,1468.00
2023-02-14T08:31:36.850Z,1452.00
2023-02-14T08:32:36.447Z,1340.00
2023-02-14T08:33:36.339Z,1232.00
2023-02-14T08:34:36.315Z,1228.00
2023-02-14T08:35:36.301Z,1188.00
2023-02-14T08:36:36.321Z,1260.00
2023-02-14T08:37:36.258Z,1300.00
2023-02-14T08:38:36.251Z,1416.00
2023-02-14T08:39:36.223Z,1580.00
2023-02-14T08:40:36.207Z,1732.00
2023-02-14T08:41:36.188Z,1844.00
2023-02-14T08:42:36.183Z,2012.00
2023-02-14T08:43:36.174Z,2132.00
2023-02-14T08:44:36.137Z,2812.00
2023-02-14T08:45:36.141Z,3060.00
2023-02-14T08:46:36.137Z,2892.00
2023-02-14T08:47:36.088Z,2892.00
2023-02-14T08:48:39.132Z,2720.00
2023-02-14T08:49:36.052Z,2972.00
2023-02-14T08:50:36.047Z,3504.00
2023-02-14T08:51:36.002Z,3864.00
2023-02-14T08:52:36.013Z,2896.00
2023-02-14T08:53:35.966Z,2640.00
2023-02-14T08:54:35.956Z,2640.00
2023-02-14T08:55:35.945Z,3104.00
2023-02-14T08:56:35.917Z,3456.00
2023-02-14T08:57:35.895Z,2864.00
2023-02-14T08:58:35.879Z,2380.00
2023-02-14T08:59:35.889Z,2436.00
2023-02-14T09:00:35.878Z,2724.00
2023-02-14T09:01:35.875Z,3568.00
2023-02-14T09:02:35.842Z,3540.00
2023-02-14T09:03:38.273Z,2960.00
2023-02-14T09:04:35.886Z,2644.00
2023-02-14T09:05:35.765Z,2528.00
2023-02-14T09:06:35.732Z,2520.00
2023-02-14T09:07:35.721Z,2464.00
2023-02-14T09:08:35.698Z,2444.00
2023-02-14T09:09:35.709Z,2564.00
2023-02-14T09:10:35.664Z,2676.00
2023-02-14T09:11:35.653Z,2468.00
2023-02-14T09:12:35.630Z,2372.00
2023-02-14T09:13:35.642Z,2384.00
2023-02-14T09:14:35.595Z,2972.00
2023-02-14T09:15:35.576Z,3044.00
2023-02-14T09:16:35.621Z,3012.00
2023-02-14T09:17:35.541Z,3944.00
2023-02-14T09:18:35.524Z,6732.00
2023-02-14T09:19:35.543Z,4700.00
2023-02-14T09:20:35.526Z,3396.00
2023-02-14T09:21:35.502Z,3064.00
2023-02-14T09:22:35.447Z,2820.00
2023-02-14T09:23:35.434Z,2784.00
2023-02-14T09:24:35.420Z,2756.00
2023-02-14T09:25:35.961Z,2664.00
2023-02-14T09:26:35.387Z,2680.00
2023-02-14T09:27:35.365Z,3296.00
2023-02-14T09:28:35.346Z,4532.00
2023-02-14T09:29:35.331Z,3908.00
2023-02-14T09:30:35.413Z,3836.00
2023-02-14T09:31:35.355Z,4008.00
2023-02-14T09:32:35.284Z,4172.00
2023-02-14T09:33:35.267Z,5180.00
2023-02-14T09:34:35.245Z,5172.00
2023-02-14T09:35:35.230Z,4288.00
2023-02-14T09:36:35.219Z,3928.00
2023-02-14T09:37:35.193Z,3696.00
2023-02-14T09:38:35.176Z,3416.00
2023-02-14T09:39:35.166Z,2892.00
2023-02-14T09:40:35.140Z,2604.00
2023-02-14T09:41:35.125Z,2736.00
2023-02-14T09:42:35.108Z,2904.00
2023-02-14T09:43:35.099Z,3076.00
2023-02-14T09:44:35.077Z,3368.00
2023-02-14T09:45:35.132Z,3600.00
2023-02-14T09:46:35.046Z,3648.00
2023-02-14T09:47:35.035Z,3644.00
2023-02-14T09:48:35.009Z,3736.00
2023-02-14T09:49:35.140Z,3556.00
2023-02-14T09:50:34.987Z,3500.00
2023-02-14T09:51:34.968Z,3708.00
2023-02-14T09:52:34.947Z,4020.00
2023-02-14T09:53:34.934Z,4020.00
2023-02-14T09:54:34.923Z,4120.00
2023-02-14T09:55:34.904Z,4480.00
2023-02-14T09:56:45.996Z,4484.00
2023-02-14T09:57:34.860Z,4492.00
2023-02-14T09:58:34.858Z,4564.00
2023-02-14T09:59:34.873Z,4368.00
2023-02-14T10:00:34.809Z,4296.00
2023-02-14T10:01:34.931Z,4420.00
2023-02-14T10:02:34.888Z,4856.00
2023-02-14T10:03:34.764Z,5400.00
2023-02-14T10:04:34.752Z,5516.00
2023-02-14T10:05:34.733Z,5412.00
2023-02-14T10:06:34.707Z,5228.00
2023-02-14T10:07:34.703Z,5132.00
2023-02-14T10:08:34.682Z,5136.00
2023-02-14T10:09:34.664Z,5212.00
2023-02-14T10:10:34.655Z,5304.00
2023-02-14T10:11:34.629Z,5308.00
2023-02-14T10:12:34.617Z,5712.00
2023-02-14T10:13:34.597Z,6292.00
2023-02-14T10:14:34.588Z,6912.00
2023-02-14T10:15:34.560Z,7808.00
2023-02-14T10:16:34.576Z,7220.00
2023-02-14T10:17:34.549Z,9320.00
2023-02-14T10:18:34.516Z,9508.00
2023-02-14T10:19:34.507Z,7136.00
2023-02-14T10:20:34.488Z,7084.00
2023-02-14T10:21:34.498Z,8628.00
2023-02-14T10:22:34.450Z,10688.00
2023-02-14T10:23:34.438Z,17440.00
2023-02-14T10:24:34.429Z,15184.00
2023-02-14T10:25:34.418Z,15760.00
2023-02-14T10:26:34.396Z,22880.00
2023-02-14T10:27:34.379Z,12828.00
2023-02-14T10:28:34.364Z,10968.00
2023-02-14T10:29:34.349Z,9916.00
2023-02-14T10:30:34.427Z,12740.00
2023-02-14T10:31:34.473Z,10752.00
2023-02-14T10:32:34.302Z,18560.00
2023-02-14T10:33:34.318Z,31424.00
2023-02-14T10:34:34.294Z,12004.00
2023-02-14T10:35:34.262Z,14928.00
2023-02-14T10:36:34.245Z,12348.00
2023-02-14T10:37:34.237Z,14924.00
2023-02-14T10:38:34.223Z,14308.00
2023-02-14T10:39:34.212Z,11208.00
2023-02-14T10:40:34.196Z,9412.00
2023-02-14T10:41:34.182Z,8232.00
2023-02-14T10:42:34.166Z,8268.00
2023-02-14T10:43:34.158Z,8504.00
2023-02-14T10:44:34.139Z,8224.00
2023-02-14T10:45:34.178Z,8212.00
2023-02-14T10:46:34.130Z,8888.00
2023-02-14T10:47:34.123Z,9472.00
2023-02-14T10:48:34.088Z,11144.00
2023-02-14T10:49:34.076Z,13100.00
2023-02-14T10:50:34.061Z,15152.00
2023-02-14T10:51:34.300Z,18976.00
2023-02-14T10:52:34.035Z,26944.00
2023-02-14T10:53:34.026Z,25472.00
2023-02-14T10:54:34.019Z,29056.00
2023-02-14T10:55:34.018Z,29024.00
2023-02-14T10:56:34.000Z,29088.00
2023-02-14T10:57:33.982Z,29088.00
2023-02-14T10:58:33.964Z,28960.00
2023-02-14T10:59:33.965Z,28896.00
2023-02-14T11:00:33.948Z,30400.00
2023-02-14T11:01:33.976Z,30912.00
2023-02-14T11:02:33.927Z,30752.00
2023-02-14T11:03:33.969Z,30080.00
2023-02-14T11:04:33.912Z,27232.00
2023-02-14T11:05:33.902Z,23712.00
2023-02-14T11:06:33.898Z,27200.00
2023-02-14T11:07:33.898Z,28768.00
2023-02-14T11:08:33.905Z,30176.00
2023-02-14T11:09:33.879Z,28512.00
2023-02-14T11:10:33.869Z,28640.00
2023-02-14T11:11:33.858Z,27040.00
2023-02-14T11:12:33.856Z,28000.00
2023-02-14T11:13:33.851Z,27648.00
2023-02-14T11:14:33.844Z,20608.00
2023-02-14T11:15:33.859Z,26656.00
2023-02-14T11:16:33.884Z,26784.00
2023-02-14T11:17:33.829Z,25952.00
2023-02-14T11:18:33.818Z,25952.00
2023-02-14T11:19:36.096Z,26144.00
2023-02-14T11:20:33.812Z,26720.00
2023-02-14T11:21:33.800Z,25728.00
2023-02-14T11:22:33.797Z,25536.00
2023-02-14T11:23:33.797Z,25664.00
2023-02-14T11:24:33.819Z,25504.00
2023-02-14T11:25:33.787Z,25856.00
2023-02-14T11:26:33.780Z,25920.00
2023-02-14T11:27:33.793Z,25984.00
2023-02-14T11:28:33.766Z,25664.00
2023-02-14T11:29:33.767Z,25536.00
2023-02-14T11:30:33.788Z,25792.00
2023-02-14T11:31:33.946Z,25696.00
2023-02-14T11:32:33.769Z,25280.00
2023-02-14T11:33:33.744Z,25696.00
2023-02-14T11:34:33.746Z,25088.00
2023-02-14T11:35:33.750Z,24864.00
2023-02-14T11:36:33.746Z,24672.00
2023-02-14T11:37:33.729Z,24736.00
2023-02-14T11:38:33.726Z,23936.00
2023-02-14T11:39:33.721Z,24320.00
2023-02-14T11:40:33.725Z,24160.00
2023-02-14T11:41:33.722Z,23840.00
2023-02-14T11:42:33.714Z,24064.00
2023-02-14T11:43:33.710Z,24032.00
2023-02-14T11:44:33.709Z,24032.00
2023-02-14T11:45:33.701Z,24544.00
2023-02-14T11:46:36.146Z,24000.00
2023-02-14T11:47:33.703Z,24672.00
2023-02-14T11:48:38.986Z,24224.00
2023-02-14T11:49:33.679Z,25152.00
2023-02-14T11:50:33.685Z,27232.00
2023-02-14T11:51:33.684Z,28416.00
2023-02-14T11:52:33.673Z,29024.00
2023-02-14T11:53:33.662Z,28192.00
2023-02-14T11:54:33.658Z,28032.00
2023-02-14T11:55:33.662Z,27936.00
2023-02-14T11:56:33.652Z,27072.00
2023-02-14T11:57:33.648Z,26976.00
2023-02-14T11:58:33.641Z,25088.00
2023-02-14T11:59:33.648Z,22688.00
2023-02-14T12:00:33.645Z,21440.00
2023-02-14T12:01:33.626Z,18208.00
2023-02-14T12:02:33.657Z,15976.00
2023-02-14T12:03:33.926Z,15624.00
2023-02-14T12:04:38.216Z,15452.00
2023-02-14T12:05:33.610Z,15472.00
2023-02-14T12:06:33.608Z,15000.00
2023-02-14T12:07:33.606Z,14928.00
2023-02-14T12:08:33.609Z,14820.00
2023-02-14T12:09:33.601Z,14576.00
2023-02-14T12:10:33.589Z,14400.00
2023-02-14T12:11:33.578Z,14440.00
2023-02-14T12:12:33.574Z,14184.00
2023-02-14T12:13:33.584Z,13972.00
2023-02-14T12:14:33.573Z,13916.00
2023-02-14T12:15:33.587Z,13788.00
2023-02-14T12:16:33.558Z,13752.00
2023-02-14T12:17:33.556Z,13628.00
2023-02-14T12:18:33.545Z,13584.00
2023-02-14T12:19:33.551Z,13444.00
2023-02-14T12:20:33.533Z,13336.00
2023-02-14T12:21:33.523Z,13168.00
2023-02-14T12:22:33.517Z,13044.00
2023-02-14T12:23:33.514Z,12928.00
2023-02-14T12:24:33.508Z,12808.00
2023-02-14T12:25:33.502Z,12736.00
2023-02-14T12:26:33.490Z,12616.00
2023-02-14T12:27:35.560Z,12520.00
2023-02-14T12:28:33.480Z,12288.00
2023-02-14T12:29:33.492Z,12208.00
2023-02-14T12:30:33.458Z,11984.00
2023-02-14T12:31:33.645Z,11808.00
2023-02-14T12:32:33.445Z,11664.00
2023-02-14T12:33:33.430Z,11284.00
2023-02-14T12:34:33.440Z,11256.00
2023-02-14T12:35:33.414Z,11132.00
2023-02-14T12:36:33.404Z,10960.00
2023-02-14T12:37:33.394Z,10668.00
2023-02-14T12:38:33.386Z,10408.00
2023-02-14T12:39:33.379Z,9960.00
2023-02-14T12:40:33.367Z,9604.00
2023-02-14T12:41:33.363Z,9328.00
2023-02-14T12:42:33.350Z,9100.00
2023-02-14T12:43:33.341Z,8984.00
2023-02-14T12:44:33.335Z,8796.00
2023-02-14T12:45:33.318Z,8624.00
2023-02-14T12:46:33.336Z,8508.00
2023-02-14T12:47:33.297Z,8228.00
2023-02-14T12:48:33.296Z,8120.00
2023-02-14T12:49:33.280Z,7856.00
2023-02-14T12:50:33.270Z,7724.00
2023-02-14T12:51:33.264Z,7568.00
2023-02-14T12:52:33.255Z,7304.00
2023-02-14T12:53:33.242Z,7144.00
2023-02-14T12:54:33.229Z,6948.00
2023-02-14T12:55:33.220Z,6744.00
2023-02-14T12:56:33.213Z,6596.00
2023-02-14T12:57:33.207Z,6412.00
2023-02-14T12:58:33.190Z,6188.00
2023-02-14T12:59:33.185Z,6012.00
2023-02-14T13:00:33.187Z,5860.00
2023-02-14T13:01:39.080Z,5712.00
2023-02-14T13:02:33.260Z,5520.00
2023-02-14T13:03:33.142Z,5360.00
2023-02-14T13:04:33.133Z,5188.00
2023-02-14T13:05:33.112Z,5028.00
2023-02-14T13:06:33.100Z,4892.00
2023-02-14T13:07:33.097Z,4740.00
2023-02-14T13:08:33.101Z,4628.00
2023-02-14T13:09:33.584Z,4520.00
2023-02-14T13:10:33.057Z,4416.00
2023-02-14T13:11:33.044Z,4300.00
2023-02-14T13:12:33.061Z,4176.00
2023-02-14T13:13:33.300Z,4076.00
2023-02-14T13:14:33.008Z,3944.00
2023-02-14T13:15:33.009Z,3752.00
2023-02-14T13:16:33.522Z,3556.00
2023-02-14T13:17:32.972Z,3376.00
2023-02-14T13:18:32.963Z,3204.00
2023-02-14T13:19:33.210Z,3044.00
2023-02-14T13:20:32.945Z,2924.00
2023-02-14T13:21:32.926Z,2824.00
2023-02-14T13:22:32.912Z,2728.00
2023-02-14T13:23:32.899Z,2636.00
2023-02-14T13:24:32.898Z,2568.00
2023-02-14T13:25:32.883Z,2508.00
2023-02-14T13:26:32.872Z,2444.00
2023-02-14T13:27:32.871Z,2384.00
2023-02-14T13:28:32.836Z,2332.00
2023-02-14T13:29:32.823Z,2296.00
2023-02-14T13:30:32.876Z,2264.00
2023-02-14T13:31:32.976Z,2224.00
2023-02-14T13:32:32.791Z,2192.00
2023-02-14T13:33:34.971Z,2156.00
2023-02-14T13:34:32.780Z,2124.00
2023-02-14T13:35:32.741Z,2088.00
2023-02-14T13:36:32.739Z,2052.00
2023-02-14T13:37:32.716Z,2024.00
2023-02-14T13:38:32.707Z,1984.00
2023-02-14T13:39:36.135Z,1964.00
2023-02-14T13:40:32.679Z,1944.00
2023-02-14T13:41:32.663Z,1920.00
2023-02-14T13:42:32.651Z,1892.00
2023-02-14T13:43:32.637Z,1860.00
2023-02-14T13:44:32.623Z,1828.00
2023-02-14T13:45:32.628Z,1804.00
2023-02-14T13:46:32.687Z,1780.00
2023-02-14T13:47:32.580Z,1764.00
2023-02-14T13:48:33.037Z,1744.00
2023-02-14T13:49:32.769Z,1728.00
2023-02-14T13:50:32.539Z,1708.00
2023-02-14T13:51:32.523Z,1672.00
2023-02-14T13:52:32.510Z,1652.00
2023-02-14T13:53:32.505Z,1640.00
2023-02-14T13:54:32.691Z,1608.00
2023-02-14T13:55:32.468Z,1584.00
2023-02-14T13:56:32.464Z,1568.00